createdAt,value
2019-03-01T00:00:16.892Z,5.41
2019-03-01T00:04:23.556Z,5.43
2019-03-01T00:08:30.244Z,5.38
2019-03-01T00:12:39.899Z,5.48
2019-03-01T00:16:58.878Z,5.43
2019-03-01T00:21:17.142Z,5.42
2019-03-01T00:25:32.560Z,5.44
2019-03-01T00:29:57.126Z,5.54
2019-03-01T00:34:13.031Z,5.43
2019-03-01T00:38:19.714Z,5.41
2019-03-01T00:42:26.403Z,5.46
2019-03-01T00:46:29.813Z,5.48
2019-03-01T00:50:33.217Z,5.53
2019-03-01T00:54:36.626Z,5.33
2019-03-01T00:58:40.036Z,5.43
2019-03-01T01:02:43.445Z,5.63
2019-03-01T01:06:46.852Z,5.48
2019-03-01T01:10:50.260Z,5.42
2019-03-01T01:14:53.670Z,5.38
2019-03-01T01:18:57.009Z,5.43
2019-03-01T01:23:00.592Z,5.48
2019-03-01T01:27:04.005Z,5.70
2019-03-01T01:31:07.408Z,5.57
2019-03-01T01:35:10.736Z,5.70
2019-03-01T01:39:14.337Z,5.48
2019-03-01T01:43:17.737Z,5.62
2019-03-01T01:47:21.155Z,5.40
2019-03-01T01:51:24.560Z,5.40
2019-03-01T01:55:27.966Z,5.40
2019-03-01T01:59:31.680Z,5.46
2019-03-01T02:03:35.095Z,5.51
2019-03-01T02:07:38.499Z,5.34
2019-03-01T02:11:41.822Z,5.50
2019-03-01T02:15:45.216Z,5.69
2019-03-01T02:19:48.627Z,5.39
2019-03-01T02:23:52.140Z,5.44
2019-03-01T02:27:55.488Z,5.44
2019-03-01T02:31:58.873Z,5.42
2019-03-01T02:36:02.260Z,5.37
2019-03-01T02:40:08.131Z,5.40
2019-03-01T02:44:11.638Z,5.29
2019-03-01T02:48:15.353Z,5.16
2019-03-01T02:52:18.769Z,5.42
2019-03-01T02:56:22.182Z,5.35
2019-03-01T03:00:27.412Z,5.20
2019-03-01T03:04:30.842Z,5.13
2019-03-01T03:08:34.445Z,5.12
2019-03-01T03:12:37.862Z,5.12
2019-03-01T03:16:41.476Z,5.06
2019-03-01T03:20:44.880Z,5.20
2019-03-01T03:24:48.221Z,5.08
2019-03-01T03:28:51.702Z,5.27
2019-03-01T03:32:55.114Z,5.30
2019-03-01T03:36:58.515Z,5.12
2019-03-01T03:41:01.934Z,5.01
2019-03-01T03:45:11.385Z,5.04
2019-03-01T03:49:14.887Z,5.09
2019-03-01T03:53:18.319Z,5.19
2019-03-01T03:57:21.712Z,5.18
2019-03-01T04:01:25.115Z,5.20
2019-03-01T04:05:28.624Z,5.16
2019-03-01T04:09:32.031Z,5.18
2019-03-01T04:13:35.443Z,5.25
2019-03-01T04:17:38.851Z,5.25
2019-03-01T04:21:42.268Z,5.19
2019-03-01T04:25:45.683Z,5.14
2019-03-01T04:29:49.081Z,5.21
2019-03-01T04:33:52.486Z,5.15
2019-03-01T04:37:56.003Z,5.12
2019-03-01T04:41:59.408Z,5.42
2019-03-01T04:46:02.816Z,5.22
2019-03-01T04:50:08.609Z,5.24
2019-03-01T04:54:11.987Z,5.32
2019-03-01T04:58:15.332Z,5.23
2019-03-01T05:02:18.875Z,5.22
2019-03-01T05:06:22.317Z,5.27
2019-03-01T05:10:25.733Z,5.25
2019-03-01T05:14:29.137Z,5.25
2019-03-01T05:18:32.582Z,5.26
2019-03-01T05:22:35.951Z,5.20
2019-03-01T05:26:39.406Z,5.20
2019-03-01T05:30:42.880Z,5.21
2019-03-01T05:34:46.286Z,5.22
2019-03-01T05:38:49.691Z,5.26
2019-03-01T05:42:53.144Z,5.30
2019-03-01T05:46:56.510Z,5.28
2019-03-01T05:50:59.972Z,5.23
2019-03-01T05:55:03.634Z,5.33
2019-03-01T05:59:15.993Z,5.32
2019-03-01T06:03:56.240Z,5.29
2019-03-01T06:08:03.022Z,5.25
2019-03-01T06:12:09.700Z,5.30
2019-03-01T06:16:25.398Z,5.32
2019-03-01T06:20:40.833Z,5.32
2019-03-01T06:25:17.989Z,5.50
2019-03-01T06:29:27.455Z,5.46
2019-03-01T06:33:49.072Z,5.51
2019-03-01T06:38:04.878Z,5.49
2019-03-01T06:42:14.456Z,5.53
2019-03-01T06:46:54.615Z,5.52
2019-03-01T06:50:59.650Z,5.55
2019-03-01T06:55:03.180Z,5.50
2019-03-01T06:59:06.570Z,5.49
2019-03-01T07:03:10.079Z,5.48
2019-03-01T07:07:13.494Z,5.48
2019-03-01T07:11:16.900Z,5.37
2019-03-01T07:15:20.305Z,5.30
2019-03-01T07:19:23.645Z,5.29
2019-03-01T07:23:36.279Z,5.23
2019-03-01T07:27:32.280Z,5.27
2019-03-01T07:31:35.682Z,5.17
2019-03-01T07:35:39.092Z,5.23
2019-03-01T07:39:42.605Z,5.10
2019-03-01T07:43:46.004Z,5.13
2019-03-01T07:47:49.430Z,5.14
2019-03-01T07:51:52.931Z,5.14
2019-03-01T07:55:56.453Z,5.21
2019-03-01T07:59:59.954Z,5.20
2019-03-01T08:04:03.476Z,5.27
2019-03-01T08:08:06.876Z,5.36
2019-03-01T08:12:10.289Z,5.40
2019-03-01T08:16:16.557Z,5.42
2019-03-01T08:20:19.605Z,5.52
2019-03-01T08:24:22.968Z,5.51
2019-03-01T08:28:26.498Z,5.68
2019-03-01T08:32:30.711Z,5.82
2019-03-01T08:36:35.139Z,5.84
2019-03-01T08:40:38.554Z,5.93
2019-03-01T08:44:42.059Z,5.91
2019-03-01T08:48:45.488Z,5.88
2019-03-01T08:52:48.878Z,5.90
2019-03-01T08:56:52.416Z,5.73
2019-03-01T09:00:59.755Z,5.79
2019-03-01T09:05:01.563Z,5.64
2019-03-01T09:09:08.505Z,5.38
2019-03-01T09:13:11.861Z,5.37
2019-03-01T09:17:18.241Z,5.38
2019-03-01T09:21:21.654Z,5.47
2019-03-01T09:25:25.160Z,5.64
2019-03-01T09:29:28.725Z,5.54
2019-03-01T09:33:32.186Z,5.60
2019-03-01T09:37:35.596Z,5.52
2019-03-01T09:41:40.443Z,5.63
2019-03-01T09:45:45.713Z,5.59
2019-03-01T09:49:49.300Z,5.50
2019-03-01T09:53:52.710Z,5.32
2019-03-01T09:57:56.118Z,5.34
2019-03-01T10:01:59.630Z,5.35
2019-03-01T10:06:03.154Z,5.42
2019-03-01T10:10:09.661Z,5.37
2019-03-01T10:14:13.064Z,5.41
2019-03-01T10:18:16.397Z,5.28
2019-03-01T10:22:19.745Z,5.24
2019-03-01T10:26:23.096Z,5.14
2019-03-01T10:30:27.684Z,4.93
2019-03-01T10:34:31.099Z,4.85
2019-03-01T10:38:34.506Z,4.95
2019-03-01T10:42:37.914Z,4.86
2019-03-01T10:46:41.326Z,5.03
2019-03-01T10:50:44.662Z,5.28
2019-03-01T10:54:48.040Z,5.09
2019-03-01T10:58:51.552Z,5.23
2019-03-01T11:02:55.784Z,5.44
2019-03-01T11:06:59.294Z,5.52
2019-03-01T11:11:02.801Z,5.45
2019-03-01T11:15:08.859Z,5.42
2019-03-01T11:19:12.496Z,5.49
2019-03-01T11:23:15.845Z,5.78
2019-03-01T11:27:19.204Z,5.80
2019-03-01T11:31:22.620Z,5.84
2019-03-01T11:35:26.022Z,5.90
2019-03-01T11:39:29.427Z,5.82
2019-03-01T11:43:32.939Z,5.75
2019-03-01T11:47:36.353Z,5.71
2019-03-01T11:51:39.775Z,5.99
2019-03-01T11:55:43.333Z,5.91
2019-03-01T11:59:49.646Z,6.60
2019-03-01T12:03:53.069Z,6.77
2019-03-01T12:07:56.672Z,6.90
2019-03-01T12:12:00.291Z,6.68
2019-03-01T12:16:03.705Z,6.38
2019-03-01T12:20:10.398Z,6.20
2019-03-01T12:24:13.812Z,6.33
2019-03-01T12:28:17.198Z,5.80
2019-03-01T12:32:20.606Z,6.11
2019-03-01T12:36:24.017Z,6.28
2019-03-01T12:40:31.461Z,6.23
2019-03-01T12:44:34.907Z,6.06
2019-03-01T12:48:38.441Z,5.78
2019-03-01T12:52:41.850Z,5.87
2019-03-01T12:56:45.261Z,5.87
2019-03-01T13:00:48.668Z,5.66
2019-03-01T13:04:53.513Z,5.98
2019-03-01T13:08:57.946Z,6.09
2019-03-01T13:13:02.188Z,6.15
2019-03-01T13:17:06.505Z,6.23
2019-03-01T13:21:12.983Z,6.19
2019-03-01T13:25:15.807Z,6.24
2019-03-01T13:29:22.303Z,6.36
2019-03-01T13:33:24.444Z,6.12
2019-03-01T13:37:27.976Z,6.02
2019-03-01T13:41:33.962Z,6.04
2019-03-01T13:45:36.510Z,6.15
2019-03-01T13:49:39.923Z,6.30
2019-03-01T13:53:48.875Z,6.25
2019-03-01T13:57:51.066Z,6.38
2019-03-01T14:01:54.656Z,6.34
2019-03-01T14:05:58.162Z,6.40
2019-03-01T14:10:04.748Z,6.71
2019-03-01T14:14:06.731Z,6.67
2019-03-01T14:18:10.146Z,6.66
2019-03-01T14:22:13.997Z,6.78
2019-03-01T14:26:18.653Z,7.00
2019-03-01T14:30:29.123Z,7.03
2019-03-01T14:34:30.523Z,6.76
2019-03-01T14:38:33.925Z,6.64
2019-03-01T14:42:37.340Z,6.54
2019-03-01T14:46:40.757Z,6.70
2019-03-01T14:50:44.281Z,6.70
2019-03-01T14:54:47.691Z,6.52
2019-03-01T14:58:55.921Z,6.53
2019-03-01T15:03:19.139Z,6.46
2019-03-01T15:07:22.486Z,6.46
2019-03-01T15:11:25.885Z,6.35
2019-03-01T15:15:32.238Z,6.42
2019-03-01T15:19:34.543Z,6.42
2019-03-01T15:23:37.956Z,6.51
2019-03-01T15:27:41.361Z,6.34
2019-03-01T15:31:44.881Z,6.24
2019-03-01T15:35:48.487Z,6.22
2019-03-01T15:39:54.313Z,6.16
2019-03-01T15:43:57.248Z,6.23
2019-03-01T15:48:02.048Z,6.16
2019-03-01T15:52:05.908Z,6.26
2019-03-01T15:56:09.426Z,6.17
2019-03-01T16:00:15.395Z,6.05
2019-03-01T16:04:18.801Z,6.02
2019-03-01T16:08:22.208Z,6.02
2019-03-01T16:12:25.568Z,5.95
2019-03-01T16:16:28.909Z,5.97
2019-03-01T16:20:32.436Z,5.94
2019-03-01T16:24:35.859Z,5.92
2019-03-01T16:28:39.260Z,5.93
2019-03-01T16:32:49.565Z,5.83
2019-03-01T16:36:48.632Z,5.81
2019-03-01T16:40:52.041Z,5.75
2019-03-01T16:44:55.450Z,5.71
2019-03-01T16:48:58.858Z,5.76
2019-03-01T16:53:04.751Z,5.69
2019-03-01T16:57:07.314Z,5.59
2019-03-01T17:01:10.726Z,5.62
2019-03-01T17:05:14.196Z,5.64
2019-03-01T17:09:17.549Z,5.51
2019-03-01T17:13:23.642Z,5.44
2019-03-01T17:17:25.998Z,5.41
2019-03-01T17:21:29.406Z,5.38
2019-03-01T17:25:32.816Z,5.32
2019-03-01T17:29:39.020Z,5.28
2019-03-01T17:33:45.096Z,5.23
2019-03-01T17:37:48.170Z,5.25
2019-03-01T17:41:52.052Z,5.15
2019-03-01T17:45:57.926Z,5.12
2019-03-01T17:50:00.645Z,5.10
2019-03-01T17:54:04.068Z,5.15
2019-03-01T17:58:08.914Z,5.12
2019-03-01T18:02:15.048Z,5.09
2019-03-01T18:06:18.019Z,5.06
2019-03-01T18:10:21.380Z,5.04
2019-03-01T18:14:24.786Z,5.07
2019-03-01T18:18:28.233Z,5.04
2019-03-01T18:22:31.711Z,5.05
2019-03-01T18:26:36.415Z,5.04
2019-03-01T18:30:40.251Z,5.02
2019-03-01T18:34:43.671Z,4.99
2019-03-01T18:38:47.081Z,4.99
2019-03-01T18:42:50.596Z,4.96
2019-03-01T18:46:55.400Z,4.94
2019-03-01T18:50:59.356Z,4.99
2019-03-01T18:55:02.765Z,4.96
2019-03-01T18:59:06.278Z,4.96
2019-03-01T19:03:09.799Z,5.02
2019-03-01T19:07:13.201Z,5.02
2019-03-01T19:11:16.606Z,5.01
2019-03-01T19:15:20.014Z,5.00
2019-03-01T19:19:24.477Z,5.05
2019-03-01T19:23:29.396Z,5.05
2019-03-01T19:27:33.927Z,5.04
2019-03-01T19:31:37.337Z,5.07
2019-03-01T19:35:40.752Z,5.03
2019-03-01T19:39:44.258Z,5.02
2019-03-01T19:43:54.891Z,5.00
2019-03-01T19:47:52.816Z,5.02
2019-03-01T19:51:56.230Z,4.92
2019-03-01T19:55:59.633Z,4.82
2019-03-01T20:00:03.452Z,4.94
2019-03-01T20:04:06.860Z,4.98
2019-03-01T20:08:10.269Z,5.02
2019-03-01T20:12:13.656Z,5.08
2019-03-01T20:16:19.739Z,5.01
2019-03-01T20:20:24.800Z,5.17
2019-03-01T20:24:28.310Z,5.05
2019-03-01T20:28:31.717Z,4.94
2019-03-01T20:32:35.127Z,4.88
2019-03-01T20:36:38.535Z,4.94
2019-03-01T20:40:41.955Z,4.99
2019-03-01T20:44:45.360Z,4.99
2019-03-01T20:48:48.760Z,4.89
2019-03-01T20:52:52.170Z,4.82
2019-03-01T20:56:57.381Z,4.76
2019-03-01T21:01:01.992Z,4.77
2019-03-01T21:05:09.714Z,4.85
2019-03-01T21:09:13.229Z,4.91
2019-03-01T21:13:17.075Z,4.79
2019-03-01T21:17:21.496Z,4.73
2019-03-01T21:21:25.591Z,4.75
2019-03-01T21:25:30.194Z,4.85
2019-03-01T21:29:33.603Z,4.77
2019-03-01T21:33:37.011Z,4.78
2019-03-01T21:37:40.415Z,4.87
2019-03-01T21:41:44.806Z,4.85
2019-03-01T21:45:49.205Z,4.87
2019-03-01T21:49:52.696Z,4.76
2019-03-01T21:53:56.105Z,4.79
2019-03-01T21:57:59.516Z,4.81
2019-03-01T22:02:02.932Z,4.79
2019-03-01T22:06:06.362Z,4.79
2019-03-01T22:10:11.688Z,4.73
2019-03-01T22:14:15.099Z,4.72
2019-03-01T22:18:20.402Z,4.76
2019-03-01T22:22:23.762Z,4.73
2019-03-01T22:26:27.278Z,4.74
2019-03-01T22:30:33.044Z,4.71
2019-03-01T22:34:36.545Z,4.70
2019-03-01T22:38:41.454Z,4.70
2019-03-01T22:42:45.790Z,4.70
2019-03-01T22:46:50.462Z,4.75
2019-03-01T22:50:53.874Z,4.70
2019-03-01T22:54:57.654Z,4.76
2019-03-01T22:59:02.428Z,4.82
2019-03-01T23:03:05.933Z,4.67
2019-03-01T23:07:09.264Z,4.70
2019-03-01T23:11:12.753Z,4.75
2019-03-01T23:15:16.168Z,4.67
2019-03-01T23:19:19.677Z,4.62
2019-03-01T23:23:24.120Z,4.65
2019-03-01T23:27:28.453Z,4.71
2019-03-01T23:31:35.652Z,4.68
2019-03-01T23:35:38.443Z,4.68
2019-03-01T23:39:41.835Z,4.69
2019-03-01T23:43:45.245Z,4.70
2019-03-01T23:47:48.657Z,4.69
2019-03-01T23:51:52.069Z,4.60
2019-03-01T23:55:55.758Z,4.59
